Sunday, June 26, 2016
00:57 UTC
  |  Log In   |  Register Free
Airport Search:

Pocono Mountains Municipal Airport
(KMPO)

Pocono Mountains Municipal Airport Diagram
No Airport Diagram Available

FAA data valid effective May 26 2016 - Jul 21 2016 (unless otherwise noted).

 
 
 
 
 
 
 
 
 
 
 
 
 
 
Current Aviation Weather for KMPO

Weather Summary


The most recent METAR observation for MPO was updated at: 12:53 UTC
METAR for KMPO is not available. Closest METAR is for KAVP
KMPO  (most recent observation was updatred at 25:23 UTC)
252353Z AUTO 22004KT 10SM CLR 23/12 A3022 RMK AO2 SLP225 T02280117 10256 20228 55000

KAVP  (19.6 nm SE)   (most recent observation was updated at 25:23 UTC)
252354Z 21006KT 10SM SCT065 27/14 A3017 RMK AO2 SLP209 T02670139 10311 20267 53003

KABE  (29.3 nm NE)   (most recent observation was updated at 26:00 UTC)
260051Z 20003KT 10SM CLR 24/12 A3016 RMK AO2 SLP211 T02390122 $

TAF for KMPO is not available.
KAVP  (19.6 nm SE)   (most recent observation was updatred at 25:23 UTC)
252322Z 2600/2624 10004KT P6SM FEW250 FM261500 23008KT P6SM FEW060 SCT250


KABE  (29.3 nm NE)   (most recent observation was updatred at 25:23 UTC)
252329Z 2600/2624 VRB03KT P6SM SKC FM261600 22006KT P6SM FEW050


GlobalAir.com is loading additional information.
 Current Weather at MPO
76.0 F° (24.4 C°)

South winds at 6.9 mph
Pressure:
30.22 in
Humidity:
42%
Wind:
South at 6.9 mph
Dew Point:
51.1 F° (10.6 C°)
Visibility:
10.00 mi
MPO NOAA Radar




Find All Airport Services Find A Hotel Find A Rental Car Find A Golf Course Find A Restaurant $100 Hamburger



Airport Weather Forecast for KMPO

Translated METAR for KMPO (2353 UTC)
METAR:
KMPO 252353Z AUTO 22004KT 10SM CLR 23/12 A3022 RMK AO2 SLP225 T02280117 10256 20228 55000
Conditions at:
KMPO (Pocono Mountains Muni, PA) observed 2353 UTC 25 June 2016
Temperature:
23°C (73.4°F)
Dewpoint:
12°C (53.6°F) [RH = 49.9]
Pressure:
30.22 inches Hg (1023.4 mb)
pressure at sea level is 225 in Hg
Winds:
from the SW (220 degrees) at 4.6 mph (4 knots: 2.1 m/s)
Visibility:
10 mile(s)
Ceiling:
at least 12,000 feet AGL
Clouds:
Clear below 12,000 feet AGL
Remarks:
site is un-manned
site is automated and HAS a precipitation sensor

Translated TAF for KAVP (Wilkes-Barre/Scranton Intl, PA) (2322 UTC)
TAF text:
KAVP 252322Z 2600/2624 10004KT P6SM FEW250
Forecast period:
Sunday Jun 26 2016 00:00 UTC - Sunday Jun 26 2016 24:00 UTC
Forecast type:
FROM: standard forecast or significant change
Winds:
from the E (100 degrees) at 4.6 mph (4 knots: 2.1 m/s)
Visibility:
6 or more mile(s) (9.7+ km)
Ceiling:
at least 12,000 feet AGL
Clouds:
Few Clouds at 25,000 feet AGL
Weather:
no significant weather observed at this time
TAF text:
FM261500 23008KT P6SM FEW060 SCT250
Forecast period:
Sunday Jun 26 2016 15:00 UTC - Sunday Jun 26 2016 24:00 UTC
Forecast type:
FROM: standard forecast or significant change
Winds:
from the SW (230 degrees) at 9.2 mph (8 knots: 4.1 m/s)
Visibility:
6 or more mile(s) (9.7+ km)
Ceiling:
at least 12,000 feet AGL
Clouds:
Few Clouds at 6,000 feet AGL
Scattered Clouds at 25,000 feet AGL
Weather:
no significant weather observed at this time
FBO's on the Field
FBO Company Facility Photos Services Transportation Aviation Fuel Prices: Prices include tax
Catering Weather Repair Courtesy Rental Type 100LL JetA JetA+ MOGAS 8087
 
Pocono Mountains Municipal Airport Authority

This FBO has not yet been rated
FS:Phillips 66
Last Updated: May-23
Login to update fuel prices
SS:
Contact Pocono Mountains Municipal Airport AuthorityMore FBO Information
 
Add another FBO Facility Photos Catering Weather Repair Courtesy Rental Type 100LL JetA JetA+ MOGAS 8087
Services Transportation Aviation Fuel Prices: Prices include tax


model-print
model-print
model-print
model-print